Ashkini Spirit — C6WJ9 — position and weather

sailwx.info

Track history (hours):
 
Tides and Currents Weather Stations Pressure Air Temp Water Temp Dewpoint Dewpoint Depression Visibility Wind Speed Wind Dir Waves Ship Positions

Ashkini Spirit

Last reported at 2018-Apr-19 10:40 UTC. Time now 2018-Apr-23 03:52 UTC.
Position N 01°24' E 103°14'.

Length 273 m; draft 9 m.

Type: Tanker. MMSI: 308932000.

Date/timePositionNaut miles runAvg speedWind from/ knotsBaromVisibWave heightAir tempDewpointWater temp
2018-Apr-19 10:40N 01°24' E 103°14'310.5
2018-Apr-19 10:22N 01°22' E 103°17'612.2
2018-Apr-19 09:55N 01°18' E 103°21'513.2
2018-Apr-19 09:30N 01°14' E 103°25'712.6
2018-Apr-19 08:57N 01°12' E 103°32'612.6
2018-Apr-19 08:29N 01°11' E 103°37'612.0
2018-Apr-19 08:00N 01°09' E 103°43'4 8.8
2018-Apr-19 07:30N 01°10' E 103°47'713.3
2018-Apr-19 06:59N 01°13' E 103°53'4 7.2
2018-Apr-19 06:26N 01°16' E 103°56'1 0.2
2018-Apr-19 00:19N 01°16' E 103°55'0 0.2
2018-Apr-18 23:55N 01°16' E 103°55'0 0.0
2018-Apr-18 22:12N 01°16' E 103°55'0 0.0
2018-Apr-18 20:36N 01°16' E 103°55'0 0.0
2018-Apr-18 20:18N 01°16' E 103°55'0 0.0
2018-Apr-18 19:54N 01°16' E 103°55'0 0.0
2018-Apr-18 19:11N 01°16' E 103°55'0 0.0
2018-Apr-18 07:53N 01°16' E 103°55'1 3.7
2018-Apr-18 07:30N 01°15' E 103°56'4 6.4
2018-Apr-18 06:57N 01°16' E 103°60'3 5.5
2018-Apr-18 06:30N 01°16' E 104°02'  
2018-Apr-11 00:47N 24°05' E 122°32'3 9.5
2018-Apr-11 00:30N 24°07' E 122°31'5 9.9
2018-Apr-10 23:58N 24°12' E 122°32'5 9.7
2018-Apr-10 23:30N 24°16' E 122°33'5 9.2
2018-Apr-10 23:00N 24°21' E 122°35'5 9.9
2018-Apr-10 22:30N 24°25' E 122°37'510.6
2018-Apr-10 22:00N 24°31' E 122°38'612.0
2018-Apr-10 21:30N 24°36' E 122°39'511.0
2018-Apr-10 21:00N 24°42' E 122°41'510.0
2018-Apr-10 20:30N 24°47' E 122°42'5 9.4
2018-Apr-10 20:00N 24°51' E 122°43'5 9.5
2018-Apr-10 19:30N 24°56' E 122°44'5 9.5
2018-Apr-10 19:00N 25°00' E 122°45'5 9.7
2018-Apr-10 18:29N 25°05' E 122°47'5 9.8
2018-Apr-10 18:00N 25°10' E 122°48'  
Track history (hours):
 
Tides and Currents Weather Stations Pressure Air Temp Water Temp Dewpoint Dewpoint Depression Visibility Wind Speed Wind Dir Waves Ship Positions

Ashkini Spirit

Last reported at 2018-Apr-19 10:40 UTC. Time now 2018-Apr-23 03:52 UTC.
Position N 01°24' E 103°14'.

Length 273 m; draft 9 m.

Type: Tanker. MMSI: 308932000.

Date/timePositionNaut miles runAvg speedWind from/ knotsBaromVisibWave heightAir tempDewpointWater temp
2018-Apr-19 10:40N 01°24' E 103°14'310.5
2018-Apr-19 10:22N 01°22' E 103°17'612.2
2018-Apr-19 09:55N 01°18' E 103°21'513.2
2018-Apr-19 09:30N 01°14' E 103°25'712.6
2018-Apr-19 08:57N 01°12' E 103°32'612.6
2018-Apr-19 08:29N 01°11' E 103°37'612.0
2018-Apr-19 08:00N 01°09' E 103°43'4 8.8
2018-Apr-19 07:30N 01°10' E 103°47'713.3
2018-Apr-19 06:59N 01°13' E 103°53'4 7.2
2018-Apr-19 06:26N 01°16' E 103°56'1 0.2
2018-Apr-19 00:19N 01°16' E 103°55'0 0.2
2018-Apr-18 23:55N 01°16' E 103°55'0 0.0
2018-Apr-18 22:12N 01°16' E 103°55'0 0.0
2018-Apr-18 20:36N 01°16' E 103°55'0 0.0
2018-Apr-18 20:18N 01°16' E 103°55'0 0.0
2018-Apr-18 19:54N 01°16' E 103°55'0 0.0
2018-Apr-18 19:11N 01°16' E 103°55'0 0.0
2018-Apr-18 07:53N 01°16' E 103°55'1 3.7
2018-Apr-18 07:30N 01°15' E 103°56'4 6.4
2018-Apr-18 06:57N 01°16' E 103°60'3 5.5
2018-Apr-18 06:30N 01°16' E 104°02'  
2018-Apr-11 00:47N 24°05' E 122°32'3 9.5
2018-Apr-11 00:30N 24°07' E 122°31'5 9.9
2018-Apr-10 23:58N 24°12' E 122°32'5 9.7
2018-Apr-10 23:30N 24°16' E 122°33'5 9.2
2018-Apr-10 23:00N 24°21' E 122°35'5 9.9
2018-Apr-10 22:30N 24°25' E 122°37'510.6
2018-Apr-10 22:00N 24°31' E 122°38'612.0
2018-Apr-10 21:30N 24°36' E 122°39'511.0
2018-Apr-10 21:00N 24°42' E 122°41'510.0
2018-Apr-10 20:30N 24°47' E 122°42'5 9.4
2018-Apr-10 20:00N 24°51' E 122°43'5 9.5
2018-Apr-10 19:30N 24°56' E 122°44'5 9.5
2018-Apr-10 19:00N 25°00' E 122°45'5 9.7
2018-Apr-10 18:29N 25°05' E 122°47'5 9.8
2018-Apr-10 18:00N 25°10' E 122°48'  

Dump ship's entire track history